createdAt,value
2022-11-02T00:01:41.229Z,10.00
2022-11-02T00:04:09.203Z,9.80
2022-11-02T00:06:36.296Z,9.90
2022-11-02T00:11:30.684Z,9.80
2022-11-02T00:16:25.599Z,9.80
2022-11-02T00:18:56.150Z,10.30
2022-11-02T00:21:25.923Z,10.30
2022-11-02T00:23:54.040Z,9.60
2022-11-02T00:26:21.126Z,10.00
2022-11-02T00:28:48.127Z,9.70
2022-11-02T00:33:42.603Z,9.90
2022-11-02T00:36:09.664Z,10.20
2022-11-02T00:41:03.736Z,10.60
2022-11-02T00:43:30.664Z,10.00
2022-11-02T00:45:57.569Z,9.90
2022-11-02T00:48:24.447Z,10.30
2022-11-02T00:50:51.702Z,10.20
2022-11-02T00:58:15.265Z,9.70
2022-11-02T01:00:42.091Z,9.60
2022-11-02T01:03:08.993Z,10.10
2022-11-02T01:05:37.625Z,9.70
2022-11-02T01:08:05.808Z,9.80
2022-11-02T01:10:33.006Z,10.00
2022-11-02T01:13:01.834Z,9.70
2022-11-02T01:15:28.879Z,9.60
2022-11-02T01:17:55.948Z,10.20
2022-11-02T01:20:22.948Z,9.70
2022-11-02T01:25:17.547Z,10.10
2022-11-02T01:27:44.434Z,10.30
2022-11-02T01:30:11.837Z,10.30
2022-11-02T01:37:33.247Z,10.00
2022-11-02T01:40:00.110Z,10.20
2022-11-02T01:42:28.600Z,10.20
2022-11-02T01:44:55.432Z,10.10
2022-11-02T01:49:53.494Z,10.30
2022-11-02T01:52:31.201Z,10.30
2022-11-02T01:55:25.953Z,10.20
2022-11-02T01:58:19.123Z,10.00
2022-11-02T02:00:46.691Z,10.40
2022-11-02T02:03:17.704Z,10.60
2022-11-02T02:06:10.203Z,9.90
2022-11-02T02:08:40.851Z,9.90
2022-11-02T02:11:27.557Z,10.20
2022-11-02T02:14:18.574Z,10.00
2022-11-02T02:17:00.597Z,10.30
2022-11-02T02:19:40.990Z,10.00
2022-11-02T02:22:29.271Z,10.60
2022-11-02T02:25:25.986Z,10.60
2022-11-02T02:27:52.934Z,10.30
2022-11-02T02:30:20.194Z,10.60
2022-11-02T02:32:57.393Z,10.60
2022-11-02T02:35:27.015Z,10.40
2022-11-02T02:37:59.999Z,10.20
2022-11-02T02:40:40.369Z,9.80
2022-11-02T02:43:25.021Z,9.90
2022-11-02T02:45:56.178Z,10.30
2022-11-02T02:48:25.527Z,10.30
2022-11-02T02:51:03.990Z,10.30
2022-11-02T02:53:45.028Z,11.00
2022-11-02T02:56:14.672Z,10.50
2022-11-02T02:59:04.962Z,10.30
2022-11-02T03:01:33.849Z,9.90
2022-11-02T03:06:32.845Z,10.00
2022-11-02T03:09:21.599Z,10.20
2022-11-02T03:12:07.363Z,10.40
2022-11-02T03:15:02.855Z,10.10
2022-11-02T03:17:48.927Z,10.20
2022-11-02T03:21:02.742Z,10.10
2022-11-02T03:23:54.293Z,10.10
2022-11-02T03:26:32.055Z,10.30
2022-11-02T03:29:01.982Z,10.40
2022-11-02T03:31:34.703Z,10.40
2022-11-02T03:36:46.185Z,9.90
2022-11-02T03:39:15.274Z,10.30
2022-11-02T03:41:45.283Z,10.20
2022-11-02T03:44:17.368Z,10.00
2022-11-02T03:46:45.620Z,10.40
2022-11-02T03:49:17.552Z,10.00
2022-11-02T03:51:46.220Z,10.50
2022-11-02T03:54:31.607Z,10.10
2022-11-02T03:59:35.486Z,10.00
2022-11-02T04:02:02.753Z,10.50
2022-11-02T04:06:57.253Z,10.40
2022-11-02T04:12:10.884Z,10.20
2022-11-02T04:14:37.867Z,10.80
2022-11-02T04:17:28.119Z,10.30
2022-11-02T04:22:41.489Z,10.00
2022-11-02T04:25:16.274Z,10.20
2022-11-02T04:27:43.733Z,10.70
2022-11-02T04:30:11.081Z,10.30
2022-11-02T04:33:01.770Z,10.50
2022-11-02T04:38:14.868Z,10.30
2022-11-02T04:43:09.244Z,10.50
2022-11-02T04:45:36.543Z,10.10
2022-11-02T04:48:08.245Z,10.60
2022-11-02T04:50:36.422Z,10.60
2022-11-02T04:53:05.655Z,10.40
2022-11-02T04:55:33.149Z,10.60
2022-11-02T04:57:59.995Z,10.30
2022-11-02T05:00:26.888Z,10.10
2022-11-02T05:05:21.233Z,10.70
2022-11-02T05:07:48.351Z,10.40
2022-11-02T05:10:15.397Z,9.90
2022-11-02T05:12:42.240Z,9.90
2022-11-02T05:15:09.680Z,10.20
2022-11-02T05:17:36.557Z,10.70
2022-11-02T05:22:32.518Z,9.90
2022-11-02T05:24:59.347Z,10.50
2022-11-02T05:27:26.202Z,10.10
2022-11-02T05:34:47.561Z,10.10
2022-11-02T05:39:44.062Z,11.00
2022-11-02T05:42:13.252Z,10.20
2022-11-02T05:49:35.004Z,10.70
2022-11-02T05:52:01.869Z,10.70
2022-11-02T05:54:28.724Z,10.10
2022-11-02T06:01:50.192Z,10.60
2022-11-02T06:14:07.184Z,10.60
2022-11-02T06:16:34.065Z,10.20
2022-11-02T06:21:28.296Z,10.80
2022-11-02T06:31:17.563Z,11.20
2022-11-02T06:33:45.585Z,10.80
2022-11-02T06:38:40.170Z,10.70
2022-11-02T06:41:07.084Z,10.80
2022-11-02T06:43:34.739Z,10.20
2022-11-02T06:51:02.387Z,10.30
2022-11-02T06:53:29.376Z,10.50
2022-11-02T06:55:57.714Z,10.70
2022-11-02T07:01:01.893Z,10.40
2022-11-02T07:03:29.830Z,10.60
2022-11-02T07:05:57.001Z,10.70
2022-11-02T07:08:25.009Z,10.80
2022-11-02T07:13:20.033Z,10.70
2022-11-02T07:15:46.948Z,11.10
2022-11-02T07:18:14.006Z,11.10
2022-11-02T07:23:09.685Z,11.00
2022-11-02T07:25:36.813Z,10.80
2022-11-02T07:28:04.186Z,10.80
2022-11-02T07:30:32.783Z,10.90
2022-11-02T07:35:27.239Z,10.70
2022-11-02T07:38:01.995Z,10.70
2022-11-02T07:40:30.360Z,11.00
2022-11-02T07:42:58.137Z,10.80
2022-11-02T07:45:25.588Z,11.00
2022-11-02T07:47:52.453Z,11.00
2022-11-02T07:50:22.049Z,11.30
2022-11-02T07:52:57.035Z,10.00
2022-11-02T07:55:27.341Z,11.30
2022-11-02T07:57:59.615Z,10.90
2022-11-02T08:00:32.290Z,11.40
2022-11-02T08:03:01.191Z,11.20
2022-11-02T08:05:29.537Z,11.40
2022-11-02T08:08:01.116Z,11.20
2022-11-02T08:10:29.311Z,11.00
2022-11-02T08:12:57.521Z,11.10
2022-11-02T08:15:24.971Z,11.50
2022-11-02T08:18:13.028Z,11.60
2022-11-02T08:20:39.916Z,11.50
2022-11-02T08:25:38.068Z,11.80
2022-11-02T08:28:06.873Z,11.80
2022-11-02T08:30:34.107Z,11.80
2022-11-02T08:33:13.160Z,11.60
2022-11-02T08:35:40.991Z,11.60
2022-11-02T08:38:08.921Z,12.00
2022-11-02T08:40:36.562Z,11.40
2022-11-02T08:43:06.295Z,11.50
2022-11-02T08:46:00.591Z,11.50
2022-11-02T08:48:21.766Z,11.90
2022-11-02T08:50:49.482Z,12.00
2022-11-02T08:53:16.531Z,11.70
2022-11-02T08:55:43.395Z,11.60
2022-11-02T09:00:37.496Z,12.80
2022-11-02T09:03:09.850Z,12.20
2022-11-02T09:05:39.088Z,11.70
2022-11-02T09:08:08.719Z,11.80
2022-11-02T09:10:37.000Z,11.80
2022-11-02T09:13:07.049Z,11.80
2022-11-02T09:15:36.433Z,11.60
2022-11-02T09:18:04.555Z,12.80
2022-11-02T09:20:31.693Z,12.40
2022-11-02T09:22:58.655Z,12.10
2022-11-02T09:25:25.873Z,12.60
2022-11-02T09:27:57.192Z,12.10
2022-11-02T09:30:25.546Z,12.20
2022-11-02T09:33:03.026Z,12.30
2022-11-02T09:35:37.031Z,12.30
2022-11-02T09:40:39.913Z,12.20
2022-11-02T09:43:32.212Z,12.40
2022-11-02T09:46:05.613Z,12.00
2022-11-02T09:48:39.705Z,12.30
2022-11-02T09:51:11.129Z,12.00
2022-11-02T09:54:13.348Z,12.30
2022-11-02T09:56:44.703Z,12.10
2022-11-02T09:59:19.736Z,12.10
2022-11-02T10:02:04.389Z,12.20
2022-11-02T10:04:52.353Z,12.30
2022-11-02T10:07:28.852Z,12.30
2022-11-02T10:10:14.074Z,12.00
2022-11-02T10:13:02.329Z,12.40
2022-11-02T10:15:41.226Z,12.50
2022-11-02T10:18:24.487Z,12.70
2022-11-02T10:21:06.419Z,13.10
2022-11-02T10:23:45.601Z,12.70
2022-11-02T10:26:25.120Z,12.80
2022-11-02T10:29:03.063Z,13.70
2022-11-02T10:31:33.756Z,13.30
2022-11-02T10:34:12.613Z,13.60
2022-11-02T10:37:15.047Z,13.50
2022-11-02T10:39:44.671Z,13.90
2022-11-02T10:45:01.826Z,14.00
2022-11-02T10:47:33.347Z,14.00
2022-11-02T10:50:35.806Z,14.80
2022-11-02T10:53:35.100Z,15.40
2022-11-02T10:56:17.020Z,15.20
2022-11-02T10:58:48.725Z,16.30
2022-11-02T11:01:15.854Z,16.10
2022-11-02T11:04:01.280Z,15.50
2022-11-02T11:06:39.609Z,14.80
2022-11-02T11:09:31.314Z,15.00
2022-11-02T11:20:36.129Z,15.00
2022-11-02T11:23:24.246Z,14.90
2022-11-02T11:26:28.045Z,14.20
2022-11-02T11:28:56.586Z,14.60
2022-11-02T11:31:24.307Z,14.20
2022-11-02T11:33:56.793Z,13.70
2022-11-02T11:36:34.496Z,14.30
2022-11-02T11:39:08.026Z,14.40
2022-11-02T11:41:39.730Z,15.60
2022-11-02T11:44:14.550Z,16.10
2022-11-02T11:46:51.108Z,17.00
2022-11-02T11:49:48.111Z,17.20
2022-11-02T11:52:29.959Z,16.70
2022-11-02T11:55:06.224Z,16.50
2022-11-02T11:57:34.729Z,17.80
2022-11-02T12:00:22.338Z,17.80
2022-11-02T12:03:06.202Z,18.50
2022-11-02T12:06:34.914Z,18.70
2022-11-02T12:09:16.906Z,19.00
2022-11-02T12:11:58.489Z,19.50
2022-11-02T12:14:42.771Z,17.90
2022-11-02T12:17:34.616Z,17.40
2022-11-02T12:20:25.272Z,16.50
2022-11-02T12:23:13.041Z,17.60
2022-11-02T12:26:20.347Z,16.80
2022-11-02T12:28:58.134Z,16.50
2022-11-02T12:34:10.029Z,16.40
2022-11-02T12:37:11.175Z,16.80
2022-11-02T12:42:26.224Z,17.90
2022-11-02T12:45:20.362Z,16.80
2022-11-02T12:47:56.001Z,16.20
2022-11-02T12:53:00.202Z,16.00
2022-11-02T12:55:40.166Z,16.60
2022-11-02T12:58:11.341Z,16.90
2022-11-02T13:00:42.865Z,16.60
2022-11-02T13:03:26.135Z,16.80
2022-11-02T13:05:57.418Z,16.70
2022-11-02T13:08:42.014Z,17.10
2022-11-02T13:11:31.829Z,17.40
2022-11-02T13:13:59.907Z,18.10
2022-11-02T13:16:44.330Z,19.00
2022-11-02T13:19:42.058Z,19.70
2022-11-02T13:22:12.143Z,18.90
2022-11-02T13:24:44.012Z,19.50
2022-11-02T13:27:36.867Z,19.50
2022-11-02T13:30:15.563Z,19.50
2022-11-02T13:32:55.049Z,19.40
2022-11-02T13:35:30.572Z,19.00
2022-11-02T13:38:13.201Z,18.60
2022-11-02T13:41:24.438Z,18.20
2022-11-02T13:44:06.328Z,18.40
2022-11-02T13:47:00.276Z,18.50
2022-11-02T13:49:35.827Z,18.20
2022-11-02T13:52:15.325Z,18.20
2022-11-02T13:54:46.725Z,18.30
2022-11-02T13:57:40.734Z,17.60
2022-11-02T14:00:24.601Z,17.60
2022-11-02T14:02:57.241Z,17.70
2022-11-02T14:05:33.779Z,17.70
2022-11-02T14:08:08.017Z,17.70
2022-11-02T14:10:39.281Z,17.10
2022-11-02T14:13:06.368Z,17.30
2022-11-02T14:15:33.487Z,17.10
2022-11-02T14:18:28.691Z,16.80
2022-11-02T14:20:55.586Z,17.20
2022-11-02T14:23:25.481Z,16.80
2022-11-02T14:25:56.717Z,16.10
2022-11-02T14:28:25.650Z,16.30
2022-11-02T14:31:02.236Z,15.70
2022-11-02T14:33:44.224Z,15.60
2022-11-02T14:36:17.102Z,15.50
2022-11-02T14:38:55.648Z,15.70
2022-11-02T14:41:47.101Z,15.40
2022-11-02T14:44:29.260Z,15.20
2022-11-02T14:46:59.325Z,14.30
2022-11-02T14:49:32.250Z,15.20
2022-11-02T14:52:24.772Z,15.00
2022-11-02T14:55:00.539Z,14.30
2022-11-02T14:57:33.248Z,13.90
2022-11-02T15:00:03.746Z,14.00
2022-11-02T15:02:42.034Z,14.40
2022-11-02T15:05:30.830Z,14.10
2022-11-02T15:08:03.672Z,14.00
2022-11-02T15:10:30.457Z,13.20
2022-11-02T15:13:19.219Z,13.50
2022-11-02T15:16:11.934Z,13.30
2022-11-02T15:18:40.641Z,13.30
2022-11-02T15:21:10.842Z,13.10
2022-11-02T15:23:51.955Z,12.90
2022-11-02T15:26:42.458Z,12.70
2022-11-02T15:29:27.970Z,13.40
2022-11-02T15:31:58.015Z,13.00
2022-11-02T15:34:46.188Z,12.50
2022-11-02T15:37:50.551Z,12.30
2022-11-02T15:40:25.196Z,12.70
2022-11-02T15:43:10.545Z,12.40
2022-11-02T15:46:09.639Z,12.70
2022-11-02T15:48:44.473Z,12.80
2022-11-02T15:51:39.027Z,12.70
2022-11-02T15:54:46.058Z,12.60
2022-11-02T15:57:40.417Z,12.50
2022-11-02T16:00:24.588Z,12.50
2022-11-02T16:02:55.239Z,12.50
2022-11-02T16:05:28.005Z,12.40
2022-11-02T16:08:10.516Z,12.40
2022-11-02T16:10:43.923Z,12.40
2022-11-02T16:13:13.041Z,12.40
2022-11-02T16:15:42.524Z,12.30
2022-11-02T16:18:30.504Z,12.30
2022-11-02T16:21:02.173Z,12.20
2022-11-02T16:23:31.626Z,12.20
2022-11-02T16:26:00.866Z,12.20
2022-11-02T16:28:30.346Z,12.10
2022-11-02T16:31:18.090Z,12.10
2022-11-02T16:33:54.862Z,12.10
2022-11-02T16:36:35.306Z,12.00
2022-11-02T16:39:13.672Z,11.90
2022-11-02T16:41:41.551Z,11.90
2022-11-02T16:44:10.163Z,11.90
2022-11-02T16:46:49.752Z,11.90
2022-11-02T16:49:20.789Z,11.90
2022-11-02T16:51:54.685Z,11.90
2022-11-02T16:54:29.505Z,12.00
2022-11-02T16:57:05.988Z,11.90
2022-11-02T16:59:36.140Z,12.00
2022-11-02T17:02:05.472Z,12.00
2022-11-02T17:04:33.188Z,11.80
2022-11-02T17:07:32.255Z,11.80
2022-11-02T17:10:01.582Z,11.80
2022-11-02T17:12:37.261Z,11.80
2022-11-02T17:15:16.452Z,11.80
2022-11-02T17:17:44.035Z,11.80
2022-11-02T17:20:11.711Z,11.80
2022-11-02T17:22:51.080Z,11.80
2022-11-02T17:25:28.175Z,11.80
2022-11-02T17:27:57.087Z,11.80
2022-11-02T17:30:45.602Z,11.80
2022-11-02T17:33:30.685Z,11.80
2022-11-02T17:36:05.240Z,11.80
2022-11-02T17:38:32.410Z,11.70
2022-11-02T17:41:00.781Z,11.70
2022-11-02T17:45:59.958Z,11.60
2022-11-02T17:48:31.317Z,11.60
2022-11-02T17:51:01.865Z,11.50
2022-11-02T17:53:28.929Z,11.50
2022-11-02T17:55:56.530Z,11.40
2022-11-02T17:58:23.413Z,11.30
2022-11-02T18:00:52.288Z,11.30
2022-11-02T18:03:22.357Z,11.20
2022-11-02T18:05:55.848Z,11.20
2022-11-02T18:08:25.828Z,11.20
2022-11-02T18:10:53.124Z,11.10
2022-11-02T18:13:21.838Z,11.10
2022-11-02T18:15:49.791Z,11.10
2022-11-02T18:18:16.859Z,11.10
2022-11-02T18:20:43.791Z,11.10
2022-11-02T18:23:17.150Z,11.00
2022-11-02T18:25:44.076Z,11.00
2022-11-02T18:28:10.966Z,11.00
2022-11-02T18:30:41.483Z,11.00
2022-11-02T18:33:12.278Z,11.00
2022-11-02T18:35:40.501Z,11.00
2022-11-02T18:38:07.932Z,10.90
2022-11-02T18:40:35.769Z,11.00
2022-11-02T18:43:02.978Z,10.90
2022-11-02T18:48:02.091Z,10.80
2022-11-02T18:50:28.985Z,10.80
2022-11-02T18:52:55.931Z,10.80
2022-11-02T18:55:22.881Z,10.80
2022-11-02T18:57:50.963Z,10.80
2022-11-02T19:00:18.097Z,10.80
2022-11-02T19:05:30.984Z,10.70
2022-11-02T19:08:19.460Z,10.80
2022-11-02T19:10:47.546Z,10.80
2022-11-02T19:13:14.915Z,10.80
2022-11-02T19:15:42.850Z,10.80
2022-11-02T19:18:10.133Z,10.80
2022-11-02T19:20:37.005Z,10.80
2022-11-02T19:23:03.940Z,10.80
2022-11-02T19:25:31.142Z,10.80
2022-11-02T19:27:58.079Z,10.80
2022-11-02T19:30:25.114Z,10.90
2022-11-02T19:32:52.018Z,10.80
2022-11-02T19:35:18.887Z,10.80
2022-11-02T19:37:45.709Z,10.80
2022-11-02T19:40:12.831Z,10.80
2022-11-02T19:42:39.851Z,10.80
2022-11-02T19:45:07.128Z,10.80
2022-11-02T19:47:34.784Z,10.80
2022-11-02T19:50:01.685Z,10.80
2022-11-02T19:52:28.535Z,10.70
2022-11-02T19:54:55.463Z,10.70
2022-11-02T19:57:22.358Z,10.80
2022-11-02T20:02:16.538Z,10.70
2022-11-02T20:04:44.996Z,10.70
2022-11-02T20:07:11.834Z,10.60
2022-11-02T20:09:38.775Z,10.60
2022-11-02T20:12:07.703Z,10.50
2022-11-02T20:14:36.391Z,10.50
2022-11-02T20:17:25.688Z,10.40
2022-11-02T20:19:53.264Z,10.40
2022-11-02T20:22:20.172Z,10.40
2022-11-02T20:24:47.016Z,10.40
2022-11-02T20:27:16.929Z,10.30
2022-11-02T20:29:44.121Z,10.30
2022-11-02T20:32:20.408Z,10.30
2022-11-02T20:34:47.638Z,10.30
2022-11-02T20:37:14.508Z,10.30
2022-11-02T20:39:41.418Z,10.30
2022-11-02T20:42:09.756Z,10.30
2022-11-02T20:44:37.120Z,10.30
2022-11-02T20:47:04.008Z,10.30
2022-11-02T20:52:18.877Z,10.30
2022-11-02T20:54:45.773Z,10.30
2022-11-02T20:57:12.646Z,10.30
2022-11-02T20:59:42.337Z,10.30
2022-11-02T21:02:12.905Z,10.20
2022-11-02T21:04:39.926Z,10.20
2022-11-02T21:07:07.578Z,10.20
2022-11-02T21:09:35.405Z,10.20
2022-11-02T21:12:20.834Z,10.20
2022-11-02T21:14:47.709Z,10.20
2022-11-02T21:17:14.608Z,10.20
2022-11-02T21:19:41.534Z,9.90
2022-11-02T21:22:08.399Z,9.70
2022-11-02T21:27:02.518Z,9.70
2022-11-02T21:29:29.398Z,10.30
2022-11-02T21:31:56.302Z,10.50
2022-11-02T21:34:23.292Z,9.60
2022-11-02T21:36:50.804Z,9.80
2022-11-02T21:39:17.697Z,9.50
2022-11-02T21:41:44.578Z,10.30
2022-11-02T21:46:39.063Z,10.10
2022-11-02T21:49:05.976Z,10.30
2022-11-02T21:51:34.487Z,10.10
2022-11-02T21:54:01.353Z,10.00
2022-11-02T21:56:30.713Z,9.80
2022-11-02T21:58:57.896Z,10.20
2022-11-02T22:01:49.723Z,10.00
2022-11-02T22:04:25.722Z,9.90
2022-11-02T22:14:14.947Z,9.80
2022-11-02T22:16:43.581Z,9.80
2022-11-02T22:19:14.562Z,9.90
2022-11-02T22:21:43.708Z,9.90
2022-11-02T22:24:11.179Z,10.10
2022-11-02T22:26:39.271Z,9.80
2022-11-02T22:29:06.761Z,10.20
2022-11-02T22:31:40.145Z,10.00
2022-11-02T22:34:10.378Z,9.90
2022-11-02T22:36:39.122Z,9.90
2022-11-02T22:39:08.404Z,9.70
2022-11-02T22:41:40.755Z,9.50
2022-11-02T22:44:11.782Z,9.90
2022-11-02T22:46:44.401Z,9.50
2022-11-02T22:49:13.161Z,9.50
2022-11-02T22:51:45.342Z,9.60
2022-11-02T22:54:15.652Z,9.40
2022-11-02T22:56:43.453Z,9.20
2022-11-02T22:59:10.592Z,9.70
2022-11-02T23:01:38.927Z,9.50
2022-11-02T23:04:06.762Z,10.30
2022-11-02T23:06:34.513Z,9.60
2022-11-02T23:09:01.530Z,9.90
2022-11-02T23:11:31.755Z,9.70
2022-11-02T23:14:01.710Z,9.70
2022-11-02T23:16:32.976Z,9.70
2022-11-02T23:19:29.031Z,10.40
2022-11-02T23:22:14.570Z,9.50
2022-11-02T23:25:05.830Z,9.90
2022-11-02T23:27:34.024Z,9.90
2022-11-02T23:35:32.349Z,9.70
2022-11-02T23:38:03.974Z,9.90
2022-11-02T23:45:25.693Z,9.00
2022-11-02T23:48:00.773Z,9.50
2022-11-02T23:50:50.610Z,9.50
2022-11-02T23:53:41.305Z,9.20
2022-11-02T23:56:33.574Z,9.30
2022-11-02T23:59:06.932Z,9.30
